Terminal Aerodrome Forecast
Issued by NWS Tallahassee, FL

Home | Current Version | Previous Version | Text Only | Print | Product List | Glossary On
Versions: 1 2 3 4 5 6 7 8 9 10 11 12
000
FTUS42 KTAE 282327
TAFTLH
TAF
KTLH 282327Z 2900/2924 13006KT 4SM TSRA BKN030CB
     FM290200 09004KT P6SM SCT250
     FM291500 10006KT P6SM VCTS BKN040CB
     FM291800 12007KT 5SM TSRA BKN040CB=

USA.gov is the U.S. government's official web portal to all federal, state and local government web resources and services.